• Join FlightAware (Why Join?)
  • Login
  • US Flag 
11:22PM EDT


 

Airport Tracker/Info


-or-


 

Live Flight TrackerFlight Track Log ✈ N444WR ✈ 10-Dec-2013 ✈ KFYE - KFYE

Flight Track Log - Related Links

Times and Time Zones

All times are in EST time to prevent confusion due to time zone crossing. See the N444WR flight status page for this flight to view local times or setup timezone preferences in your user account.

Time Position Orientation Groundspeed Altitude Reporting Facility
EST Latitude Longitude Course Direction KTS MPH feet Rate Location/Type
11:20AM 35.1500 -89.3500 158° South 147 169 4,300  Level KMEM
11:20AM 35.1167 -89.3333 158° South 149 171 5,000 840 Climbing KMEM
11:22AM 35.0542 -89.3153 167° South 157 181 6,300 780 Climbing Memphis Center
11:23AM 35.0131 -89.2956 159° South 156 180 7,000 360 Climbing Memphis Center
11:24AM 34.9558 -89.2697 160° South 179 206 7,100  Climbing Memphis Center
11:25AM 34.9047 -89.2456 159° South 191 220 7,100  Level Memphis Center
11:26AM 34.8528 -89.2233 161° South 194 223 7,100  Level Memphis Center
11:27AM 34.8028 -89.2003 159° South 192 221 7,100  Level Memphis Center
11:28AM 34.7517 -89.1769 159° South 192 221 7,100  Level Memphis Center
11:29AM 34.7011 -89.1531 159° South 192 221 7,100  Level Memphis Center
11:30AM 34.6508 -89.1311 160° South 191 220 7,100  Level Memphis Center
11:31AM 34.6003 -89.1072 159° South 191 220 7,100  Level Memphis Center
11:32AM 34.5422 -89.0808 159° South 190 219 7,100  Level Memphis Center
11:33AM 34.4917 -89.0578 159° South 191 220 7,100  Level Memphis Center
11:34AM 34.4408 -89.0344 159° South 193 222 7,100  Level Memphis Center
11:35AM 34.3925 -89.0147 161° South 191 220 7,100  Level Memphis Center
11:35AM 34.3897 -89.0125 147° Southeast 191 220 7,100  Level Memphis Center
11:36AM 34.3389 -88.9897 160° South 192 221 7,100  Level Memphis Center
11:37AM 34.3197 -88.9814 160° South 191 220 7,100  Level Memphis Center
11:37AM 34.2886 -88.9664 158° South 193 222 7,100  Level Memphis Center
11:38AM 34.2656 -88.9561 160° South 192 221 7,100  Level Memphis Center
11:38AM 34.2383 -88.9436 159° South 191 220 7,100  Level Memphis Center
11:39AM 34.2156 -88.9356 164° South 192 221 7,100  Level Memphis Center
11:39AM 34.1861 -88.9206 157° South 194 223 7,100  Level Memphis Center
11:40AM 34.1656 -88.9128 163° South 194 223 7,100  Level Memphis Center
11:40AM 34.1283 -88.8939 157° South 191 220 7,100  Level Memphis Center
11:41AM 34.1156 -88.8897 165° South 194 223 7,100  Level Memphis Center
11:41AM 34.0761 -88.8717 159° South 194 223 7,100  Level Memphis Center
11:42AM 34.0553 -88.8619 159° South 196 226 7,100  Level Memphis Center
11:43AM 34.0228 -88.8481 160° South 200 230 7,100  Level Memphis Center
11:43AM 34.0050 -88.8392 157° South 197 227 7,100  Level Memphis Center
11:44AM 33.9708 -88.8242 160° South 196 226 7,100  Level Memphis Center
11:44AM 33.9531 -88.8164 160° South 197 227 7,100  Level Memphis Center
11:45AM 33.9203 -88.8019 160° South 195 224 7,100  Level Memphis Center
11:45AM 33.8989 -88.8011 178° South 192 221 7,100  Level Memphis Center
11:46AM 33.8664 -88.7933 169° South 196 226 7,100  Level Memphis Center
11:46AM 33.8489 -88.7908 173° South 197 227 7,100  Level Memphis Center
11:47AM 33.7967 -88.7781 169° South 194 223 7,100 -360 Level Memphis Center
11:48AM 33.7483 -88.7672 169° South 197 227 6,500 -660 Descending Memphis Center
11:49AM 33.6964 -88.7553 169° South 196 226 5,900 -600 Descending Memphis Center
11:49AM 33.6947 -88.7533 136° Southeast 198 228 5,900 -1,020 Level Memphis Center
11:50AM 33.6381 -88.7475 175° South 195 224 4,900 -900 Descending Memphis Center
11:50AM 33.6433 -88.7489 348° North 192 221 5,000 -600 Climbing Memphis Center
11:51AM 33.5903 -88.7489 180° South 192 221 4,300 -540 Descending Memphis Center
11:52AM 33.5400 -88.7497 181° South 185 213 4,000 -300 Descending Memphis Center
11:52AM 33.5319 -88.7486 173° South 186 214 4,000  Level Memphis Center
11:53AM 33.4919 -88.7469 178° South 177 204 4,000  Level Memphis Center
11:53AM 33.4819 -88.7478 184° South 181 208 4,000  Level Memphis Center
11:54AM 33.4336 -88.7419 174° South 180 207 4,000  Level Memphis Center
11:54AM 33.4342 -88.7433 296° West 176 203 4,000  Level Memphis Center
11:55AM 33.3856 -88.7342 171° South 181 208 4,000  Level Memphis Center
11:55AM 33.3828 -88.7353 198° South 180 207 4,000  Level Memphis Center
11:56AM 33.3397 -88.7292 173° South 182 209 4,000  Level Memphis Center
11:56AM 33.3317 -88.7278 172° South 184 212 4,000  Level Memphis Center
11:57AM 33.2853 -88.7214 173° South 181 208 4,000  Level Memphis Center
11:57AM 33.2731 -88.7178 166° South 183 211 4,000  Level Memphis Center
11:58AM 33.2583 -88.6842 118° Southeast 159 183 4,000  Level Memphis Center
11:58AM 33.2594 -88.6736 83° East 172 198 4,000 -840 Level Memphis Center
11:59AM 33.2606 -88.6319 88° East 154 177 3,200 -1,020 Descending Memphis Center
11:59AM 33.2600 -88.6242 95° East 158 182 3,000 -900 Descending Memphis Center
12:00PM 33.2878 -88.6047 30° Northeast 128 147 2,300 -240 Descending Memphis Center
12:00PM 33.2664 -88.5775 133° Southeast 156 180 2,800 -240 Climbing Memphis Center
12:01PM 33.3147 -88.5947 343° North 111 128 2,100 -420 Descending Memphis Center
12:02PM 33.3483 -88.5922 North 111 128 2,100 -300 Level Memphis Center
12:03PM 33.3753 -88.5922 360° North 108 124 1,600 -600 Descending Memphis Center
12:04PM 33.4067 -88.5925 360° North 97 112 1,000 -540 Descending Memphis Center
12:05PM 33.4233 -88.5925 360° North 76 87 600 -180 Descending Memphis Center
12:06PM 33.4547 -88.5925 360° North 95 109 600 180 Level Memphis Center
12:07PM 33.4631 -88.5925 360° North 101 116 1,000 1,080 Climbing Memphis Center
12:08PM 33.4797 -88.6250 302° West 109 125 2,100 1,140 Climbing Memphis Center
12:09PM 33.4964 -88.6547 304° West 113 130 3,400 1,200 Climbing Memphis Center
12:09PM 33.5014 -88.6589 325° Northwest 126 145 3,500 1,140 Climbing Memphis Center
12:10PM 33.5256 -88.6700 339° North 103 119 4,600 1,020 Climbing Memphis Center
12:10PM 33.5250 -88.6703 203° Southwest 94 108 4,600 900 Level Memphis Center
12:11PM 33.5528 -88.6800 344° North 106 122 5,500 840 Climbing Memphis Center
12:11PM 33.5533 -88.6789 59° Northeast 105 121 5,500 480 Level Memphis Center
12:12PM 33.5839 -88.6925 340° North 113 130 6,000 480 Climbing Memphis Center
12:12PM 33.5894 -88.6939 348° North 111 128 6,000  Level Memphis Center
12:13PM 33.6194 -88.7075 339° North 138 159 6,000  Level Memphis Center
12:13PM 33.6258 -88.7114 333° Northwest 127 146 6,000 60 Level Memphis Center
12:14PM 33.6628 -88.7236 345° North 135 155 6,100  Climbing Memphis Center
12:15PM 33.6967 -88.7403 338° Northwest 142 163 6,000 -120 Descending Memphis Center
12:15PM 33.7028 -88.7411 354° North 145 167 6,000  Level Memphis Center
12:16PM 33.7361 -88.7578 337° Northwest 142 163 6,000  Level Memphis Center
12:16PM 33.7383 -88.7561 32° Northeast 141 162 6,000  Level Memphis Center
12:17PM 33.7767 -88.7742 339° North 144 166 6,000  Level Memphis Center
12:18PM 33.8153 -88.7908 340° North 143 165 6,000  Level Memphis Center
12:18PM 33.8225 -88.7928 347° North 145 167 6,000  Level Memphis Center
12:19PM 33.8508 -88.8058 339° North 143 165 6,000  Level Memphis Center
12:19PM 33.8597 -88.8086 345° North 143 165 6,000 60 Level Memphis Center
12:20PM 33.8883 -88.8211 340° North 142 163 6,100  Climbing Memphis Center
12:20PM 33.8967 -88.8244 342° North 142 163 6,000 -120 Descending Memphis Center
12:21PM 33.9319 -88.8408 339° North 140 161 6,000  Level Memphis Center
12:22PM 33.9758 -88.8597 340° North 142 163 6,100  Climbing Memphis Center
12:23PM 34.0119 -88.8747 341° North 138 159 6,000  Descending Memphis Center
12:24PM 34.0478 -88.8936 336° Northwest 138 159 6,100  Climbing Memphis Center
12:25PM 34.0867 -88.9097 341° North 143 165 6,100 -60 Level Memphis Center
12:26PM 34.1225 -88.9253 340° North 138 159 6,000  Descending Memphis Center
12:27PM 34.1603 -88.9419 340° North 142 163 6,100  Climbing Memphis Center
12:28PM 34.1967 -88.9597 338° Northwest 140 161 6,000  Descending Memphis Center
12:29PM 34.2333 -88.9756 340° North 139 160 6,100  Climbing Memphis Center
12:30PM 34.2764 -88.9950 340° North 140 161 6,100  Level Memphis Center
12:32PM 34.3136 -89.0125 339° North 141 162 6,100  Level Memphis Center
12:33PM 34.3514 -89.0297 339° North 143 165 6,100  Level Memphis Center
12:34PM 34.3889 -89.0464 340° North 142 163 6,100  Level Memphis Center
12:35PM 34.4261 -89.0644 338° Northwest 143 165 6,100  Level Memphis Center
12:36PM 34.4636 -89.0817 339° North 143 165 6,100 -120 Level Memphis Center
12:37PM 34.5014 -89.0992 339° North 144 166 5,900 -60 Descending Memphis Center
12:38PM 34.5458 -89.1192 340° North 144 166 6,000  Climbing Memphis Center
12:39PM 34.5836 -89.1372 339° North 144 166 6,000  Level Memphis Center
12:40PM 34.6214 -89.1547 339° North 144 166 6,000  Level Memphis Center
12:41PM 34.6606 -89.1722 340° North 146 168 6,000  Level Memphis Center
12:42PM 34.6983 -89.1903 339° North 146 168 6,000  Level Memphis Center
12:43PM 34.7364 -89.2086 338° Northwest 146 168 6,000  Level Memphis Center
12:44PM 34.7747 -89.2264 339° North 146 168 6,000  Level Memphis Center
12:45PM 34.8189 -89.2464 340° North 145 167 6,000 -300 Level Memphis Center
12:46PM 34.8572 -89.2650 338° Northwest 146 168 5,500 -600 Descending Memphis Center
12:47PM 34.8989 -89.2839 340° North 154 177 4,800 -420 Descending Memphis Center
12:48PM 34.9383 -89.3003 341° North 154 177 4,700 -120 Descending Memphis Center